createdAt,value
2018-03-15T00:00:19.417Z,95.60
2018-03-15T00:02:46.858Z,95.50
2018-03-15T00:05:14.309Z,95.60
2018-03-15T00:07:41.754Z,95.50
2018-03-15T00:10:09.193Z,95.60
2018-03-15T00:12:36.666Z,95.70
2018-03-15T00:15:04.110Z,95.80
2018-03-15T00:17:31.587Z,95.80
2018-03-15T00:19:59.016Z,95.90
2018-03-15T00:22:26.476Z,95.90
2018-03-15T00:24:53.930Z,95.90
2018-03-15T00:27:24.310Z,95.90
2018-03-15T00:29:51.762Z,95.90
2018-03-15T00:32:22.246Z,96.20
2018-03-15T00:34:49.685Z,95.90
2018-03-15T00:37:17.151Z,95.90
2018-03-15T00:39:44.587Z,95.90
2018-03-15T00:42:12.033Z,95.90
2018-03-15T00:44:39.476Z,95.80
2018-03-15T00:47:06.917Z,95.80
2018-03-15T00:49:34.372Z,95.80
2018-03-15T00:52:01.839Z,95.80
2018-03-15T00:54:29.293Z,95.90
2018-03-15T00:56:56.737Z,95.80
2018-03-15T00:59:24.333Z,95.80
2018-03-15T01:01:51.796Z,95.90
2018-03-15T01:04:19.233Z,96.00
2018-03-15T01:06:46.694Z,95.90
2018-03-15T01:09:14.128Z,95.90
2018-03-15T01:11:41.593Z,95.80
2018-03-15T01:14:09.056Z,95.80
2018-03-15T01:16:36.577Z,95.80
2018-03-15T01:19:04.043Z,95.80
2018-03-15T01:21:31.489Z,95.70
2018-03-15T01:23:58.917Z,95.70
2018-03-15T01:26:26.409Z,95.60
2018-03-15T01:28:53.929Z,95.60
2018-03-15T01:31:21.441Z,95.60
2018-03-15T01:33:48.896Z,95.70
2018-03-15T01:36:16.336Z,95.80
2018-03-15T01:38:43.781Z,95.80
2018-03-15T01:41:11.283Z,95.70
2018-03-15T01:43:38.746Z,95.80
2018-03-15T01:46:06.181Z,95.80
2018-03-15T01:48:33.617Z,95.80
2018-03-15T01:51:01.080Z,95.80
2018-03-15T01:53:28.519Z,95.80
2018-03-15T01:55:55.958Z,95.80
2018-03-15T01:58:23.401Z,95.90
2018-03-15T02:00:50.847Z,95.90
2018-03-15T02:03:18.298Z,95.90
2018-03-15T02:05:45.749Z,95.90
2018-03-15T02:08:13.209Z,95.90
2018-03-15T02:10:40.648Z,95.80
2018-03-15T02:13:08.088Z,95.70
2018-03-15T02:15:35.548Z,95.60
2018-03-15T02:18:03.007Z,95.50
2018-03-15T02:20:30.454Z,95.80
2018-03-15T02:22:58.432Z,95.40
2018-03-15T02:25:25.868Z,95.30
2018-03-15T02:27:53.313Z,95.40
2018-03-15T02:30:20.763Z,95.40
2018-03-15T02:32:48.984Z,95.40
2018-03-15T02:35:16.429Z,95.70
2018-03-15T02:37:43.893Z,95.40
2018-03-15T02:40:11.347Z,95.30
2018-03-15T02:42:38.812Z,95.30
2018-03-15T02:45:06.281Z,95.30
2018-03-15T02:47:33.721Z,95.30
2018-03-15T02:50:01.177Z,95.20
2018-03-15T02:52:28.627Z,95.20
2018-03-15T02:54:56.960Z,95.20
2018-03-15T02:57:24.409Z,95.10
2018-03-15T02:59:51.869Z,95.10
2018-03-15T03:02:20.992Z,95.00
2018-03-15T03:04:48.449Z,95.00
2018-03-15T03:07:16.310Z,95.00
2018-03-15T03:09:43.752Z,95.00
2018-03-15T03:12:11.220Z,95.00
2018-03-15T03:14:38.683Z,94.90
2018-03-15T03:17:06.120Z,95.00
2018-03-15T03:19:33.583Z,95.10
2018-03-15T03:22:01.029Z,95.40
2018-03-15T03:24:29.242Z,95.00
2018-03-15T03:26:56.698Z,95.00
2018-03-15T03:29:24.485Z,95.10
2018-03-15T03:31:51.938Z,95.00
2018-03-15T03:34:19.376Z,95.10
2018-03-15T03:36:46.889Z,95.10
2018-03-15T03:39:14.344Z,95.10
2018-03-15T03:41:41.795Z,95.10
2018-03-15T03:44:09.244Z,95.10
2018-03-15T03:46:36.677Z,95.20
2018-03-15T03:49:04.138Z,95.30
2018-03-15T03:51:31.612Z,95.30
2018-03-15T03:53:59.052Z,95.40
2018-03-15T03:56:26.476Z,95.40
2018-03-15T03:58:54.281Z,95.40
2018-03-15T04:01:21.726Z,95.40
2018-03-15T04:03:49.180Z,95.50
2018-03-15T04:06:16.643Z,95.60
2018-03-15T04:08:44.097Z,95.60
2018-03-15T04:11:11.534Z,95.70
2018-03-15T04:13:39.001Z,95.70
2018-03-15T04:16:06.453Z,95.80
2018-03-15T04:18:33.912Z,95.80
2018-03-15T04:21:01.353Z,95.90
2018-03-15T04:23:28.809Z,95.90
2018-03-15T04:25:56.259Z,95.90
2018-03-15T04:28:23.723Z,96.00
2018-03-15T04:30:51.123Z,96.10
2018-03-15T04:33:18.602Z,96.10
2018-03-15T04:35:46.047Z,96.10
2018-03-15T04:38:13.506Z,96.00
2018-03-15T04:40:40.948Z,96.20
2018-03-15T04:43:08.415Z,96.30
2018-03-15T04:45:36.289Z,96.30
2018-03-15T04:48:03.731Z,96.40
2018-03-15T04:50:31.164Z,96.40
2018-03-15T04:52:58.634Z,96.50
2018-03-15T04:55:26.072Z,96.60
2018-03-15T04:57:53.534Z,96.70
2018-03-15T05:00:20.970Z,96.70
2018-03-15T05:02:48.402Z,96.70
2018-03-15T05:05:15.865Z,96.80
2018-03-15T05:07:43.320Z,96.80
2018-03-15T05:10:10.779Z,96.90
2018-03-15T05:12:38.274Z,97.00
2018-03-15T05:15:05.665Z,97.10
2018-03-15T05:17:33.118Z,97.20
2018-03-15T05:20:00.554Z,97.20
2018-03-15T05:22:28.413Z,97.20
2018-03-15T05:24:55.857Z,97.30
2018-03-15T05:27:23.301Z,97.40
2018-03-15T05:29:50.749Z,97.30
2018-03-15T05:32:24.798Z,97.30
2018-03-15T05:34:52.246Z,97.30
2018-03-15T05:37:19.686Z,97.20
2018-03-15T05:39:47.898Z,97.20
2018-03-15T05:42:15.358Z,97.10
2018-03-15T05:44:42.798Z,97.10
2018-03-15T05:47:10.252Z,97.50
2018-03-15T05:49:37.717Z,97.10
2018-03-15T05:52:05.162Z,97.00
2018-03-15T05:54:33.389Z,97.00
2018-03-15T05:57:00.829Z,96.90
2018-03-15T05:59:28.273Z,97.00
2018-03-15T06:01:55.708Z,97.00
2018-03-15T06:04:23.162Z,97.00
2018-03-15T06:06:50.610Z,97.00
2018-03-15T06:09:18.160Z,96.90
2018-03-15T06:11:45.627Z,96.90
2018-03-15T06:14:13.070Z,96.60
2018-03-15T06:16:40.514Z,96.60
2018-03-15T06:19:07.971Z,96.60
2018-03-15T06:21:35.422Z,96.40
2018-03-15T06:24:02.888Z,96.40
2018-03-15T06:26:30.373Z,96.40
2018-03-15T06:28:57.802Z,96.20
2018-03-15T06:31:25.278Z,96.30
2018-03-15T06:33:52.724Z,96.20
2018-03-15T06:36:20.174Z,96.30
2018-03-15T06:38:47.604Z,96.10
2018-03-15T06:41:15.063Z,96.10
2018-03-15T06:43:42.536Z,96.00
2018-03-15T06:46:09.978Z,95.90
2018-03-15T06:48:37.426Z,95.80
2018-03-15T06:51:04.880Z,95.60
2018-03-15T06:53:32.319Z,95.50
2018-03-15T06:55:59.784Z,95.30
2018-03-15T06:58:27.218Z,95.30
2018-03-15T07:00:54.662Z,95.10
2018-03-15T07:03:22.108Z,94.90
2018-03-15T07:05:51.647Z,94.80
2018-03-15T07:08:19.090Z,94.60
2018-03-15T07:10:46.539Z,94.50
2018-03-15T07:13:13.997Z,94.00
2018-03-15T07:15:41.425Z,93.60
2018-03-15T07:18:08.872Z,93.50
2018-03-15T07:20:36.316Z,93.10
2018-03-15T07:23:03.774Z,92.80
2018-03-15T07:25:31.232Z,92.20
2018-03-15T07:27:58.681Z,90.90
2018-03-15T07:30:26.132Z,90.30
2018-03-15T07:32:53.574Z,89.00
2018-03-15T07:35:21.014Z,87.70
2018-03-15T07:37:48.453Z,86.90
2018-03-15T07:40:15.913Z,86.10
2018-03-15T07:42:43.545Z,85.90
2018-03-15T07:45:10.988Z,86.30
2018-03-15T07:47:38.446Z,87.00
2018-03-15T07:50:05.901Z,87.80
2018-03-15T07:52:33.340Z,87.50
2018-03-15T07:55:00.801Z,87.50
2018-03-15T07:57:28.264Z,88.10
2018-03-15T07:59:55.721Z,88.50
2018-03-15T08:02:23.581Z,88.50
2018-03-15T08:04:51.008Z,88.50
2018-03-15T08:07:18.486Z,87.00
2018-03-15T08:09:45.926Z,85.80
2018-03-15T08:12:13.362Z,85.30
2018-03-15T08:14:40.821Z,85.10
2018-03-15T08:17:08.256Z,84.40
2018-03-15T08:19:36.457Z,83.70
2018-03-15T08:22:03.924Z,83.60
2018-03-15T08:24:31.379Z,83.30
2018-03-15T08:26:58.829Z,84.00
2018-03-15T08:29:26.265Z,84.00
2018-03-15T08:31:53.735Z,82.90
2018-03-15T08:34:21.179Z,81.90
2018-03-15T08:36:48.616Z,81.60
2018-03-15T08:39:16.099Z,81.30
2018-03-15T08:41:43.509Z,80.70
2018-03-15T08:44:10.944Z,80.20
2018-03-15T08:46:38.392Z,80.10
2018-03-15T08:49:05.828Z,79.90
2018-03-15T08:51:33.298Z,78.50
2018-03-15T08:54:00.733Z,77.10
2018-03-15T08:56:28.358Z,76.70
2018-03-15T08:58:55.773Z,76.00
2018-03-15T09:01:23.226Z,75.90
2018-03-15T09:03:50.878Z,75.90
2018-03-15T09:06:18.324Z,75.30
2018-03-15T09:08:45.822Z,74.90
2018-03-15T09:11:13.205Z,75.10
2018-03-15T09:13:40.645Z,75.80
2018-03-15T09:16:08.090Z,75.40
2018-03-15T09:18:35.570Z,75.10
2018-03-15T09:21:02.968Z,75.10
2018-03-15T09:23:30.426Z,74.40
2018-03-15T09:25:57.855Z,73.80
2018-03-15T09:28:25.284Z,73.80
2018-03-15T09:30:52.742Z,73.20
2018-03-15T09:33:20.202Z,73.00
2018-03-15T09:35:47.653Z,73.90
2018-03-15T09:38:15.099Z,73.80
2018-03-15T09:40:42.534Z,72.90
2018-03-15T09:43:10.068Z,71.70
2018-03-15T09:45:37.498Z,71.00
2018-03-15T09:48:04.941Z,70.30
2018-03-15T09:50:32.397Z,69.90
2018-03-15T09:52:59.837Z,67.60
2018-03-15T09:55:28.074Z,66.00
2018-03-15T09:57:55.508Z,65.80
2018-03-15T10:00:22.958Z,63.50
2018-03-15T10:02:50.412Z,63.10
2018-03-15T10:05:17.858Z,61.50
2018-03-15T10:07:45.315Z,59.40
2018-03-15T10:10:12.745Z,59.50
2018-03-15T10:12:40.187Z,59.60
2018-03-15T10:15:07.643Z,58.20
2018-03-15T10:17:35.077Z,57.50
2018-03-15T10:20:02.738Z,57.70
2018-03-15T10:22:30.187Z,56.40
2018-03-15T10:25:00.434Z,55.60
2018-03-15T10:27:27.897Z,55.50
2018-03-15T10:29:55.346Z,54.30
2018-03-15T10:32:23.798Z,54.40
2018-03-15T10:34:56.941Z,55.30
2018-03-15T10:37:28.251Z,56.80
2018-03-15T10:39:55.916Z,56.40
2018-03-15T10:42:23.361Z,56.50
2018-03-15T10:44:50.815Z,56.80
2018-03-15T10:47:20.421Z,57.50
2018-03-15T10:49:48.754Z,57.70
2018-03-15T10:52:16.202Z,57.50
2018-03-15T10:54:43.929Z,57.30
2018-03-15T10:57:11.387Z,57.40
2018-03-15T10:59:38.834Z,58.20
2018-03-15T11:02:06.294Z,59.20
2018-03-15T11:04:34.648Z,58.90
2018-03-15T11:07:05.006Z,58.90
2018-03-15T11:09:32.464Z,58.60
2018-03-15T11:11:59.916Z,58.90
2018-03-15T11:14:27.836Z,59.10
2018-03-15T11:16:55.277Z,58.80
2018-03-15T11:19:22.973Z,59.00
2018-03-15T11:21:50.455Z,59.50
2018-03-15T11:24:17.893Z,59.10
2018-03-15T11:26:45.353Z,59.10
2018-03-15T11:29:12.794Z,58.90
2018-03-15T11:31:40.243Z,59.40
2018-03-15T11:34:07.699Z,60.40
2018-03-15T11:36:35.141Z,60.50
2018-03-15T11:39:02.584Z,60.60
2018-03-15T11:41:30.804Z,60.20
2018-03-15T11:43:58.241Z,60.20
2018-03-15T11:46:26.466Z,60.80
2018-03-15T11:48:53.902Z,60.80
2018-03-15T11:51:21.380Z,62.10
2018-03-15T11:53:48.838Z,61.50
2018-03-15T11:56:16.334Z,61.80
2018-03-15T11:58:43.725Z,62.70
2018-03-15T12:01:11.327Z,63.10
2018-03-15T12:03:38.770Z,62.60
2018-03-15T12:06:06.228Z,62.30
2018-03-15T12:08:33.674Z,62.50
2018-03-15T12:11:01.125Z,62.30
2018-03-15T12:13:28.565Z,62.60
2018-03-15T12:15:56.030Z,62.40
2018-03-15T12:18:23.461Z,62.10
2018-03-15T12:20:50.942Z,61.30
2018-03-15T12:23:18.382Z,60.40
2018-03-15T12:25:45.871Z,60.80
2018-03-15T12:28:13.725Z,61.10
2018-03-15T12:30:41.178Z,59.50
2018-03-15T12:33:08.628Z,59.50
2018-03-15T12:35:36.076Z,59.60
2018-03-15T12:38:03.529Z,59.90
2018-03-15T12:40:30.985Z,59.80
2018-03-15T12:42:58.429Z,60.50
2018-03-15T12:45:25.877Z,60.80
2018-03-15T12:47:53.342Z,60.30
2018-03-15T12:50:20.785Z,60.50
2018-03-15T12:52:48.265Z,60.40
2018-03-15T12:55:15.696Z,60.70
2018-03-15T12:57:43.134Z,60.50
2018-03-15T13:00:10.589Z,61.40
2018-03-15T13:02:38.034Z,59.90
2018-03-15T13:05:06.258Z,59.60
2018-03-15T13:07:33.897Z,59.50
2018-03-15T13:10:01.329Z,58.90
2018-03-15T13:12:28.786Z,56.90
2018-03-15T13:14:56.235Z,56.50
2018-03-15T13:17:24.297Z,56.30
2018-03-15T13:19:53.697Z,56.60
2018-03-15T13:22:21.133Z,56.30
2018-03-15T13:24:48.750Z,56.80
2018-03-15T13:27:16.848Z,56.60
2018-03-15T13:29:44.671Z,57.20
2018-03-15T13:32:12.141Z,57.70
2018-03-15T13:34:39.588Z,57.70
2018-03-15T13:37:07.050Z,57.40
2018-03-15T13:39:34.516Z,56.80
2018-03-15T13:42:01.967Z,56.60
2018-03-15T13:44:29.440Z,56.90
2018-03-15T13:46:56.882Z,58.10
2018-03-15T13:49:24.352Z,58.00
2018-03-15T13:51:51.812Z,58.30
2018-03-15T13:54:19.265Z,58.10
2018-03-15T13:56:46.699Z,58.00
2018-03-15T13:59:14.155Z,57.80
2018-03-15T14:01:41.625Z,58.30
2018-03-15T14:04:09.070Z,58.60
2018-03-15T14:06:36.538Z,58.80
2018-03-15T14:09:03.982Z,59.00
2018-03-15T14:11:31.516Z,58.60
2018-03-15T14:13:58.961Z,59.00
2018-03-15T14:16:26.390Z,59.30
2018-03-15T14:18:53.846Z,59.60
2018-03-15T14:21:21.303Z,59.10
2018-03-15T14:23:48.760Z,58.90
2018-03-15T14:26:16.236Z,59.00
2018-03-15T14:28:43.665Z,59.30
2018-03-15T14:31:11.129Z,59.20
2018-03-15T14:33:38.571Z,59.30
2018-03-15T14:36:06.009Z,59.30
2018-03-15T14:38:33.462Z,59.40
2018-03-15T14:41:00.915Z,59.30
2018-03-15T14:43:28.571Z,59.70
2018-03-15T14:45:56.043Z,59.90
2018-03-15T14:48:23.485Z,59.90
2018-03-15T14:50:51.226Z,60.20
2018-03-15T14:53:18.678Z,60.40
2018-03-15T14:55:46.133Z,60.30
2018-03-15T14:58:13.577Z,60.30
2018-03-15T15:00:41.026Z,60.40
2018-03-15T15:03:08.477Z,60.30
2018-03-15T15:05:35.918Z,60.20
2018-03-15T15:08:03.385Z,60.00
2018-03-15T15:10:30.826Z,59.60
2018-03-15T15:12:59.030Z,60.80
2018-03-15T15:15:26.490Z,60.60
2018-03-15T15:17:53.940Z,60.80
2018-03-15T15:20:21.405Z,60.90
2018-03-15T15:22:48.854Z,60.40
2018-03-15T15:25:17.218Z,61.00
2018-03-15T15:27:44.672Z,61.30
2018-03-15T15:30:12.134Z,61.70
2018-03-15T15:32:39.606Z,61.60
2018-03-15T15:35:07.041Z,61.30
2018-03-15T15:37:34.488Z,61.40
2018-03-15T15:40:01.939Z,61.50
2018-03-15T15:42:29.382Z,61.60
2018-03-15T15:44:56.841Z,61.80
2018-03-15T15:47:24.743Z,61.80
2018-03-15T15:49:58.927Z,62.30
2018-03-15T15:52:26.367Z,62.10
2018-03-15T15:54:53.971Z,62.60
2018-03-15T15:57:21.433Z,62.80
2018-03-15T15:59:48.890Z,62.90
2018-03-15T16:02:20.453Z,63.00
2018-03-15T16:04:47.881Z,63.20
2018-03-15T16:07:15.323Z,63.40
2018-03-15T16:09:42.769Z,63.40
2018-03-15T16:12:10.221Z,63.60
2018-03-15T16:14:37.686Z,63.70
2018-03-15T16:17:05.126Z,63.80
2018-03-15T16:19:32.603Z,63.80
2018-03-15T16:22:00.060Z,63.80
2018-03-15T16:24:27.504Z,63.90
2018-03-15T16:26:54.957Z,63.90
2018-03-15T16:29:22.581Z,64.10
2018-03-15T16:31:50.803Z,64.20
2018-03-15T16:34:18.251Z,64.10
2018-03-15T16:36:45.682Z,64.20
2018-03-15T16:39:13.141Z,64.30
2018-03-15T16:41:40.599Z,64.10
2018-03-15T16:44:08.410Z,64.10
2018-03-15T16:46:35.838Z,64.30
2018-03-15T16:49:04.043Z,65.00
2018-03-15T16:51:31.510Z,64.60
2018-03-15T16:53:58.951Z,65.00
2018-03-15T16:56:26.406Z,65.10
2018-03-15T16:58:53.850Z,65.30
2018-03-15T17:01:21.304Z,65.20
2018-03-15T17:03:48.762Z,65.40
2018-03-15T17:06:16.208Z,65.50
2018-03-15T17:08:43.958Z,65.40
2018-03-15T17:11:11.399Z,65.40
2018-03-15T17:13:38.846Z,65.60
2018-03-15T17:16:06.296Z,65.50
2018-03-15T17:18:34.521Z,65.50
2018-03-15T17:21:01.984Z,65.40
2018-03-15T17:23:29.636Z,65.60
2018-03-15T17:25:57.079Z,65.90
2018-03-15T17:28:24.526Z,65.80
2018-03-15T17:30:52.739Z,65.80
2018-03-15T17:33:20.193Z,65.70
2018-03-15T17:35:47.872Z,66.70
2018-03-15T17:38:15.318Z,65.90
2018-03-15T17:40:42.775Z,66.00
2018-03-15T17:43:10.298Z,66.20
2018-03-15T17:45:38.149Z,66.20
2018-03-15T17:48:05.611Z,66.30
2018-03-15T17:50:33.054Z,66.60
2018-03-15T17:53:00.616Z,66.80
2018-03-15T17:55:28.418Z,66.90
2018-03-15T17:57:55.862Z,67.40
2018-03-15T18:00:23.313Z,67.50
2018-03-15T18:02:50.778Z,67.60
2018-03-15T18:05:18.210Z,68.10
2018-03-15T18:07:45.935Z,68.70
2018-03-15T18:10:13.420Z,69.30
2018-03-15T18:12:40.865Z,70.10
2018-03-15T18:15:08.306Z,71.30
2018-03-15T18:17:35.758Z,71.90
2018-03-15T18:20:03.203Z,72.50
2018-03-15T18:22:30.659Z,73.20
2018-03-15T18:24:58.105Z,74.00
2018-03-15T18:27:25.582Z,74.40
2018-03-15T18:29:53.009Z,74.00
2018-03-15T18:32:21.330Z,73.90
2018-03-15T18:34:48.787Z,74.40
2018-03-15T18:37:16.224Z,73.80
2018-03-15T18:39:44.455Z,73.70
2018-03-15T18:42:11.913Z,73.50
2018-03-15T18:44:39.353Z,73.80
2018-03-15T18:47:07.142Z,73.60
2018-03-15T18:49:34.577Z,73.60
2018-03-15T18:52:02.043Z,73.50
2018-03-15T18:54:29.504Z,73.70
2018-03-15T18:56:56.949Z,73.70
2018-03-15T18:59:24.452Z,73.80
2018-03-15T19:01:51.869Z,73.90
2018-03-15T19:04:19.319Z,74.10
2018-03-15T19:06:47.538Z,74.30
2018-03-15T19:09:14.980Z,74.20
2018-03-15T19:11:42.627Z,74.50
2018-03-15T19:14:10.066Z,74.60
2018-03-15T19:16:37.617Z,74.90
2018-03-15T19:19:05.077Z,75.10
2018-03-15T19:21:32.553Z,75.40
2018-03-15T19:28:34.199Z,76.00
2018-03-15T19:31:01.651Z,76.10
2018-03-15T19:33:29.226Z,76.40
2018-03-15T19:35:56.673Z,76.70
2018-03-15T19:38:24.124Z,77.20
2018-03-15T19:40:51.565Z,77.50
2018-03-15T19:43:19.025Z,77.70
2018-03-15T19:45:46.482Z,77.90
2018-03-15T19:48:13.954Z,78.00
2018-03-15T19:50:41.389Z,78.00
2018-03-15T19:53:09.056Z,78.20
2018-03-15T19:55:36.502Z,78.60
2018-03-15T19:58:03.950Z,78.80
2018-03-15T20:00:31.416Z,78.90
2018-03-15T20:02:58.968Z,79.00
2018-03-15T20:05:26.397Z,79.20
2018-03-15T20:07:53.891Z,79.50
2018-03-15T20:10:21.282Z,80.20
2018-03-15T20:12:48.766Z,80.50
2018-03-15T20:15:16.192Z,80.90
2018-03-15T20:17:43.651Z,81.10
2018-03-15T20:20:11.121Z,82.30
2018-03-15T20:22:44.165Z,82.70
2018-03-15T20:25:11.617Z,82.90
2018-03-15T20:27:44.674Z,82.30
2018-03-15T20:30:12.322Z,82.30
2018-03-15T20:32:45.341Z,82.10
2018-03-15T20:35:12.791Z,82.40
2018-03-15T20:37:40.225Z,82.00
2018-03-15T20:40:13.291Z,82.00
2018-03-15T20:42:41.474Z,82.20
2018-03-15T20:45:09.496Z,82.10
2018-03-15T20:47:42.922Z,82.20
2018-03-15T20:50:10.375Z,82.70
2018-03-15T20:52:37.829Z,82.70
2018-03-15T20:55:05.279Z,83.00
2018-03-15T20:57:32.709Z,83.30
2018-03-15T21:00:00.229Z,83.50
2018-03-15T21:02:27.598Z,83.20
2018-03-15T21:04:55.045Z,83.30
2018-03-15T21:07:22.495Z,83.30
2018-03-15T21:09:50.354Z,83.40
2018-03-15T21:12:17.822Z,83.50
2018-03-15T21:14:45.348Z,83.40
2018-03-15T21:17:12.809Z,83.70
2018-03-15T21:19:40.241Z,83.50
2018-03-15T21:22:08.460Z,84.20
2018-03-15T21:24:35.926Z,84.10
2018-03-15T21:27:03.428Z,84.80
2018-03-15T21:29:30.781Z,85.40
2018-03-15T21:31:58.237Z,86.60
2018-03-15T21:34:25.676Z,86.40
2018-03-15T21:36:53.129Z,86.70
2018-03-15T21:39:20.589Z,86.90
2018-03-15T21:41:48.036Z,87.40
2018-03-15T21:44:15.482Z,87.50
2018-03-15T21:46:42.921Z,87.70
2018-03-15T21:49:10.382Z,88.10
2018-03-15T21:51:38.617Z,88.60
2018-03-15T21:54:06.042Z,88.60
2018-03-15T21:56:34.288Z,90.20
2018-03-15T21:59:01.702Z,89.70
2018-03-15T22:01:29.159Z,89.90
2018-03-15T22:03:59.421Z,90.00
2018-03-15T22:06:27.086Z,90.10
2018-03-15T22:08:54.530Z,90.40
2018-03-15T22:11:22.027Z,90.90
2018-03-15T22:13:49.488Z,91.00
2018-03-15T22:16:16.947Z,91.20
2018-03-15T22:18:44.389Z,91.30
2018-03-15T22:21:11.822Z,91.70
2018-03-15T22:23:39.280Z,91.60
2018-03-15T22:26:06.758Z,91.40
2018-03-15T22:28:34.184Z,91.30
2018-03-15T22:31:01.622Z,91.50
2018-03-15T22:33:29.279Z,91.80
2018-03-15T22:35:56.724Z,92.60
2018-03-15T22:38:24.181Z,92.50
2018-03-15T22:40:51.627Z,92.90
2018-03-15T22:43:19.077Z,93.40
2018-03-15T22:45:46.530Z,93.50
2018-03-15T22:48:13.978Z,93.70
2018-03-15T22:50:41.703Z,94.10
2018-03-15T22:53:09.141Z,94.20
2018-03-15T22:55:36.606Z,94.40
2018-03-15T22:58:04.030Z,94.60
2018-03-15T23:00:31.469Z,94.60
2018-03-15T23:02:59.086Z,94.60
2018-03-15T23:05:26.538Z,94.70
2018-03-15T23:07:53.978Z,94.90
2018-03-15T23:10:21.426Z,95.00
2018-03-15T23:12:49.617Z,95.30
2018-03-15T23:15:17.102Z,95.30
2018-03-15T23:17:44.568Z,95.50
2018-03-15T23:20:12.016Z,95.80
2018-03-15T23:22:39.481Z,96.00
2018-03-15T23:25:06.930Z,96.30
2018-03-15T23:27:34.385Z,96.50
2018-03-15T23:30:01.813Z,96.60
2018-03-15T23:32:30.026Z,97.00
2018-03-15T23:34:57.509Z,97.10
2018-03-15T23:37:24.960Z,97.40
2018-03-15T23:39:52.422Z,97.70
2018-03-15T23:42:19.871Z,97.90
2018-03-15T23:44:47.313Z,98.20
2018-03-15T23:47:15.153Z,99.00
2018-03-15T23:49:42.595Z,99.20
2018-03-15T23:52:10.059Z,99.60
2018-03-15T23:54:37.523Z,99.90
2018-03-15T23:57:04.957Z,99.90
2018-03-15T23:59:32.413Z,99.90
